Time;durP1;ratioP1;P1;durP2;ratioP2;P2;SDS_P1;SDS_P2;PMS_P1;PMS_P2;Temp;Humidity;BMP_temperature;BMP_pressure;BME280_temperature;BME280_humidity;BME280_pressure;Samples;Min_cycle;Max_cycle;Signal;HPM_P1;HPM_P2
2021/11/21 00:01:04;;;;;;;0.88;0.60;;;;;;;3.59;70.09;97581.94;5007856;28;20039;-84
2021/11/21 00:03:30;;;;;;;0.73;0.50;;;;;;;3.38;70.28;97538.56;4987622;28;20035;-84
2021/11/21 00:05:55;;;;;;;1.95;1.40;;;;;;;3.59;70.21;97570.78;4978517;28;20052;-82
2021/11/21 00:08:22;;;;;;;0.90;0.80;;;;;;;3.42;70.11;97545.38;5009396;28;20043;-80
2021/11/21 00:10:48;;;;;;;1.20;0.90;;;;;;;3.20;70.37;97508.84;4976783;28;20125;-79
2021/11/21 00:13:14;;;;;;;1.17;0.63;;;;;;;2.73;70.09;97416.25;4976040;28;20053;-84
2021/11/21 00:15:41;;;;;;;0.75;0.60;;;;;;;3.10;70.20;97487.59;5000757;28;20046;-81
2021/11/21 00:18:08;;;;;;;1.33;0.50;;;;;;;3.18;69.76;97501.19;4997348;28;20045;-81
2021/11/21 00:20:35;;;;;;;2.92;0.60;;;;;;;3.75;69.66;97581.69;4986694;28;20161;-81
2021/11/21 00:23:01;;;;;;;0.80;0.50;;;;;;;3.58;70.04;97562.25;5011127;28;20068;-78
2021/11/21 00:25:27;;;;;;;1.13;0.50;;;;;;;3.71;69.62;97580.03;5010391;28;20046;-80
2021/11/21 00:27:53;;;;;;;0.60;0.50;;;;;;;3.60;69.99;97572.47;4997432;28;20049;-77
2021/11/21 00:30:19;;;;;;;1.90;0.70;;;;;;;3.45;69.71;97556.44;5005767;28;20081;-79
2021/11/21 00:32:46;;;;;;;0.40;0.40;;;;;;;3.63;69.48;97589.63;4983320;28;20038;-81
2021/11/21 00:35:12;;;;;;;0.60;0.55;;;;;;;3.43;69.55;97576.19;4999779;28;20047;-81
2021/11/21 00:37:38;;;;;;;1.70;0.70;;;;;;;2.90;69.27;97511.88;4981303;28;20038;-82
2021/11/21 00:40:06;;;;;;;2.22;0.70;;;;;;;3.14;69.98;97546.63;4982957;28;20422;-82
2021/11/21 00:42:32;;;;;;;1.27;0.70;;;;;;;2.47;69.72;97443.13;4980426;28;20046;-79
2021/11/21 00:44:58;;;;;;;1.10;0.70;;;;;;;3.33;70.09;97578.91;4987908;28;20054;-81
2021/11/21 00:47:24;;;;;;;1.52;0.70;;;;;;;3.44;70.58;97584.72;4990891;28;20097;-82
2021/11/21 00:49:50;;;;;;;0.77;0.57;;;;;;;3.58;70.32;97590.53;4975123;28;20137;-80
2021/11/21 00:52:16;;;;;;;1.23;0.50;;;;;;;3.56;69.50;97592.28;4984300;28;20041;-82
2021/11/21 00:54:57;;;;;;;0.55;0.55;;;;;;;3.51;69.61;97575.22;5000854;28;20077;-84
2021/11/21 00:57:23;;;;;;;0.50;0.50;;;;;;;3.57;70.00;97587.97;5001784;28;20113;-84
2021/11/21 00:59:49;;;;;;;1.00;0.60;;;;;;;3.42;69.94;97571.91;5002066;28;20406;-80
2021/11/21 01:02:16;;;;;;;4.38;0.60;;;;;;;3.43;69.55;97589.03;5004234;28;20133;-80
2021/11/21 01:04:46;;;;;;;1.05;0.60;;;;;;;3.58;69.54;97621.38;4993241;28;20056;-80
2021/11/21 01:07:14;;;;;;;1.25;0.50;;;;;;;3.58;70.14;97618.81;5008269;28;20034;-77
2021/11/21 01:09:40;;;;;;;1.00;0.65;;;;;;;3.50;70.34;97622.38;4985171;28;20049;-80
2021/11/21 01:12:08;;;;;;;1.63;0.50;;;;;;;3.51;69.79;97630.06;5011802;28;20076;-82
2021/11/21 01:14:35;;;;;;;0.60;0.40;;;;;;;3.49;69.36;97621.53;5003901;28;20076;-82
2021/11/21 01:17:01;;;;;;;0.93;0.63;;;;;;;3.24;70.48;97591.03;5004103;28;20042;-80
2021/11/21 01:19:27;;;;;;;0.43;0.43;;;;;;;3.42;70.03;97619.94;4984171;28;20069;-82
2021/11/21 01:21:53;;;;;;;2.08;0.70;;;;;;;3.07;69.67;97562.16;4988505;28;20049;-81
2021/11/21 01:24:19;;;;;;;0.55;0.50;;;;;;;3.36;70.18;97608.00;5002687;28;20129;-83
2021/11/21 01:26:45;;;;;;;0.60;0.40;;;;;;;3.29;70.44;97602.09;4992181;28;20038;-81
2021/11/21 01:29:11;;;;;;;0.73;0.60;;;;;;;3.59;70.49;97625.66;4998804;28;20718;-81
2021/11/21 01:31:38;;;;;;;0.60;0.60;;;;;;;3.52;70.58;97608.63;5008727;28;20489;-80
2021/11/21 01:34:04;;;;;;;0.73;0.70;;;;;;;3.55;70.47;97611.16;4990124;28;20418;-84
2021/11/21 01:36:30;;;;;;;0.70;0.60;;;;;;;3.47;69.79;97593.28;5004780;28;20083;-79
2021/11/21 01:38:56;;;;;;;0.82;0.65;;;;;;;3.21;69.50;97549.94;4984943;28;20073;-82
2021/11/21 01:41:23;;;;;;;0.68;0.60;;;;;;;3.03;70.91;97514.25;4968850;28;20124;-84
2021/11/21 01:43:49;;;;;;;0.77;0.50;;;;;;;3.09;70.48;97547.56;4990340;28;20120;-83
2021/11/21 01:46:16;;;;;;;2.08;0.70;;;;;;;3.73;70.73;97633.16;4988587;28;20049;-82
2021/11/21 01:48:42;;;;;;;1.05;0.60;;;;;;;3.72;70.61;97644.31;5015040;28;20034;-80
2021/11/21 01:51:11;;;;;;;0.82;0.68;;;;;;;3.52;70.30;97590.63;4988179;28;20038;-80
2021/11/21 01:53:38;;;;;;;1.00;0.60;;;;;;;3.81;70.34;97645.03;4991913;28;20077;-82
2021/11/21 01:56:05;;;;;;;1.15;0.73;;;;;;;3.74;70.48;97644.28;4997901;28;20594;-81
2021/11/21 01:58:33;;;;;;;0.80;0.60;;;;;;;3.77;70.08;97654.53;4975592;28;20379;-84
2021/11/21 02:00:59;;;;;;;0.82;0.50;;;;;;;3.71;70.14;97647.78;4989825;28;20413;-82
2021/11/21 02:03:26;;;;;;;1.25;0.60;;;;;;;3.69;70.06;97640.94;5004863;28;20050;-81
2021/11/21 02:05:52;;;;;;;1.33;0.60;;;;;;;3.63;70.02;97621.31;5011970;28;20042;-80
2021/11/21 02:08:19;;;;;;;1.30;0.45;;;;;;;3.66;70.78;97616.13;4992653;28;20045;-84
2021/11/21 02:10:46;;;;;;;0.43;0.40;;;;;;;3.82;70.01;97642.47;4970611;28;20136;-85
2021/11/21 02:13:12;;;;;;;3.88;0.70;;;;;;;3.74;70.10;97634.88;4992270;28;20540;-83
2021/11/21 02:15:42;;;;;;;1.38;0.52;;;;;;;3.65;69.70;97627.28;5012293;28;20018;-84
2021/11/21 02:18:08;;;;;;;1.27;0.50;;;;;;;3.75;69.54;97653.72;5007549;28;20048;-81
2021/11/21 02:20:34;;;;;;;1.08;0.50;;;;;;;3.78;70.63;97666.53;4987463;28;20042;-79
2021/11/21 02:23:05;;;;;;;0.40;0.40;;;;;;;3.46;69.98;97613.84;5007705;28;20073;-78
2021/11/21 02:25:31;;;;;;;0.47;0.30;;;;;;;3.57;69.32;97640.25;4995971;28;20140;-83
2021/11/21 02:27:58;;;;;;;0.70;0.40;;;;;;;3.70;69.59;97676.94;4994540;28;20070;-82
2021/11/21 02:30:24;;;;;;;0.73;0.50;;;;;;;3.07;69.48;97593.00;4976100;28;20052;-82
2021/11/21 02:32:52;;;;;;;1.00;0.40;;;;;;;3.69;70.49;97682.09;4998579;28;20046;-81
2021/11/21 02:35:19;;;;;;;0.60;0.40;;;;;;;3.56;70.50;97666.84;5003476;28;20037;-81
2021/11/21 02:37:46;;;;;;;0.70;0.40;;;;;;;3.70;69.90;97692.38;4978874;28;20042;-80
2021/11/21 02:40:17;;;;;;;1.13;0.50;;;;;;;3.37;70.64;97650.00;4994726;28;20120;-83
2021/11/21 02:42:43;;;;;;;0.43;0.40;;;;;;;3.35;70.46;97655.13;5000818;28;20138;-82
2021/11/21 02:45:15;;;;;;;0.75;0.50;;;;;;;3.61;70.39;97690.78;4982255;28;20057;-82
2021/11/21 02:47:41;;;;;;;0.77;0.60;;;;;;;3.16;70.65;97614.28;4990669;28;20135;-81
2021/11/21 02:50:14;;;;;;;1.08;0.75;;;;;;;3.20;70.60;97611.66;4981101;28;20038;-80
2021/11/21 02:52:40;;;;;;;1.20;0.52;;;;;;;3.54;70.58;97685.72;4989472;28;20505;-82
2021/11/21 02:55:07;;;;;;;0.82;0.50;;;;;;;3.45;70.83;97684.16;4989893;28;20042;-79
2021/11/21 02:57:34;;;;;;;0.77;0.43;;;;;;;3.35;70.64;97682.59;4991767;28;20518;-81
2021/11/21 03:00:01;;;;;;;0.73;0.50;;;;;;;3.20;70.15;97676.75;5006475;28;20045;-81
2021/11/21 03:02:29;;;;;;;1.65;0.55;;;;;;;3.24;70.67;97698.16;5004971;28;20026;-81
2021/11/21 03:04:56;;;;;;;0.80;0.50;;;;;;;3.24;70.71;97685.31;4990273;28;20048;-81
2021/11/21 03:07:22;;;;;;;0.47;0.47;;;;;;;3.20;70.63;97684.47;5004180;28;20038;-82
2021/11/21 03:09:50;;;;;;;2.20;0.57;;;;;;;3.28;70.26;97684.41;5003410;28;20076;-80
2021/11/21 03:12:21;;;;;;;0.90;0.47;;;;;;;3.09;70.56;97658.06;4988094;28;20034;-77
2021/11/21 03:14:48;;;;;;;1.15;0.60;;;;;;;3.28;70.96;97674.94;5013124;28;20030;-80
2021/11/21 03:17:15;;;;;;;0.45;0.45;;;;;;;3.34;70.23;97673.19;4994078;28;20105;-80
2021/11/21 03:19:42;;;;;;;0.68;0.40;;;;;;;3.19;70.26;97661.38;5010194;28;20125;-79
2021/11/21 03:22:09;;;;;;;0.50;0.40;;;;;;;3.20;70.82;97655.38;5025362;28;20060;-81
2021/11/21 03:24:35;;;;;;;0.50;0.40;;;;;;;3.35;70.85;97696.28;5017144;28;20026;-81
2021/11/21 03:27:01;;;;;;;0.52;0.52;;;;;;;3.32;70.32;97678.31;5015576;28;20052;-79
2021/11/21 03:29:27;;;;;;;0.45;0.40;;;;;;;3.30;69.93;97686.06;5021243;28;20054;-81
2021/11/21 03:31:53;;;;;;;1.30;0.60;;;;;;;2.92;70.26;97618.03;4995702;28;20057;-79
2021/11/21 03:34:20;;;;;;;1.48;0.68;;;;;;;3.39;70.25;97699.69;5021181;28;20120;-79
2021/11/21 03:36:46;;;;;;;1.73;0.80;;;;;;;3.25;69.90;97703.25;5007314;28;20035;-81
2021/11/21 03:39:12;;;;;;;2.63;0.80;;;;;;;3.04;70.01;97672.69;5024001;28;20057;-80
2021/11/21 03:41:39;;;;;;;1.23;0.85;;;;;;;3.10;70.90;97690.63;4999715;28;20036;-82
2021/11/21 03:44:07;;;;;;;1.33;0.90;;;;;;;3.00;70.58;97703.56;5015572;28;20060;-81
2021/11/21 03:46:34;;;;;;;1.23;0.80;;;;;;;2.66;71.08;97647.47;5010657;28;20038;-79
2021/11/21 03:49:01;;;;;;;2.08;1.05;;;;;;;2.23;70.62;97568.34;5013843;28;20045;-83
2021/11/21 03:51:27;;;;;;;1.38;0.90;;;;;;;2.62;71.06;97625.25;5022805;28;20386;-81
2021/11/21 03:53:53;;;;;;;1.20;1.00;;;;;;;2.59;70.57;97624.44;4985836;28;20048;-80
2021/11/21 03:56:19;;;;;;;3.00;0.88;;;;;;;2.80;70.91;97631.03;4969469;28;20490;-84
2021/11/21 03:58:45;;;;;;;1.92;1.17;;;;;;;3.31;71.29;97705.75;4986973;28;20050;-79
2021/11/21 04:01:11;;;;;;;2.20;1.00;;;;;;;3.38;71.32;97703.13;4989169;28;20454;-80
2021/11/21 04:03:37;;;;;;;1.92;1.30;;;;;;;3.11;71.08;97646.06;5001484;28;20046;-81
2021/11/21 04:06:04;;;;;;;2.80;1.23;;;;;;;2.94;70.50;97628.28;5001899;28;20045;-83
2021/11/21 04:08:30;;;;;;;3.05;1.17;;;;;;;2.91;70.88;97643.72;5004249;28;20403;-83
2021/11/21 04:10:56;;;;;;;2.90;1.13;;;;;;;2.66;71.07;97621.78;4995740;28;20124;-82
2021/11/21 04:13:22;;;;;;;1.70;1.23;;;;;;;2.37;70.75;97609.28;4989105;28;20037;-79
2021/11/21 04:15:49;;;;;;;1.52;1.10;;;;;;;2.34;71.22;97610.13;4991875;28;20057;-84
2021/11/21 04:18:15;;;;;;;6.57;1.75;;;;;;;2.88;71.64;97688.31;4994001;28;20042;-82
2021/11/21 04:20:41;;;;;;;3.55;1.17;;;;;;;2.86;71.61;97696.03;5004411;28;20049;-81
2021/11/21 04:23:07;;;;;;;2.85;1.05;;;;;;;3.12;71.68;97712.84;5001893;28;20149;-84
2021/11/21 04:25:34;;;;;;;2.53;1.02;;;;;;;2.68;71.60;97640.59;4992741;28;20041;-81
2021/11/21 04:28:00;;;;;;;4.00;1.05;;;;;;;2.87;71.69;97653.22;5002967;28;20119;-82
2021/11/21 04:30:26;;;;;;;1.55;0.90;;;;;;;3.31;71.55;97723.75;5000446;28;20065;-78
2021/11/21 04:32:51;;;;;;;0.88;0.70;;;;;;;3.33;71.52;97717.75;5026941;28;20041;-85
2021/11/21 04:35:20;;;;;;;4.53;0.90;;;;;;;3.34;71.79;97720.28;4992936;28;20053;-81
2021/11/21 04:37:47;;;;;;;1.20;0.82;;;;;;;3.09;71.78;97678.63;4973129;28;20030;-79
2021/11/21 04:40:14;;;;;;;1.40;0.77;;;;;;;3.37;71.07;97722.00;4986504;28;20049;-83
2021/11/21 04:42:41;;;;;;;3.30;1.00;;;;;;;2.88;71.97;97638.63;4985535;28;20052;-82
2021/11/21 04:45:08;;;;;;;2.20;0.70;;;;;;;3.24;71.33;97695.59;4985405;28;20057;-84
2021/11/21 04:47:34;;;;;;;1.60;0.63;;;;;;;3.19;71.40;97687.94;4972155;28;20074;-80
2021/11/21 04:50:00;;;;;;;5.18;0.88;;;;;;;3.13;71.54;97681.13;5000604;28;20115;-81
2021/11/21 04:52:25;;;;;;;2.88;0.73;;;;;;;3.46;71.62;97715.00;4998868;28;20042;-84
2021/11/21 04:54:51;;;;;;;4.20;1.00;;;;;;;3.33;71.22;97704.91;5002927;28;20444;-84
2021/11/21 04:57:17;;;;;;;5.15;0.85;;;;;;;3.43;71.60;97724.47;4989516;28;20461;-79
2021/11/21 04:59:44;;;;;;;1.25;0.82;;;;;;;3.39;70.80;97721.09;4993154;28;20979;-80
2021/11/21 05:02:10;;;;;;;1.75;0.60;;;;;;;3.35;71.09;97724.56;4976768;28;20104;-82
2021/11/21 05:04:36;;;;;;;1.23;0.77;;;;;;;3.37;70.93;97756.25;4969815;28;20034;-84
2021/11/21 05:07:03;;;;;;;1.27;0.70;;;;;;;3.06;71.07;97717.22;4991906;28;20438;-83
2021/11/21 05:09:29;;;;;;;0.95;0.73;;;;;;;3.24;71.50;97747.84;5001756;28;20535;-82
2021/11/21 05:11:56;;;;;;;1.50;0.77;;;;;;;2.98;71.51;97699.31;4985474;28;20124;-82
2021/11/21 05:14:22;;;;;;;2.97;0.70;;;;;;;3.00;71.18;97692.44;5005146;28;20524;-81
2021/11/21 05:16:49;;;;;;;1.20;0.70;;;;;;;2.91;71.58;97666.84;4971236;28;20050;-82
2021/11/21 05:19:15;;;;;;;0.95;0.68;;;;;;;3.41;71.26;97734.78;5002016;28;20117;-81
2021/11/21 05:21:41;;;;;;;1.85;0.70;;;;;;;3.07;70.86;97676.09;4976459;28;20133;-81
2021/11/21 05:24:08;;;;;;;1.13;0.70;;;;;;;3.00;71.21;97662.44;5002828;28;20038;-81
2021/11/21 05:26:34;;;;;;;3.53;0.80;;;;;;;3.13;70.83;97683.72;4997912;28;20042;-80
2021/11/21 05:28:59;;;;;;;3.72;0.70;;;;;;;3.09;70.65;97699.19;5002087;28;20037;-83
2021/11/21 05:31:29;;;;;;;2.53;0.70;;;;;;;3.38;71.21;97719.38;5007448;28;20068;-79
2021/11/21 05:33:58;;;;;;;2.22;0.63;;;;;;;3.60;70.76;97750.81;4998934;28;20097;-80
2021/11/21 05:36:24;;;;;;;2.63;0.60;;;;;;;3.59;70.75;97755.97;5009292;28;20045;-81
2021/11/21 05:38:50;;;;;;;0.88;0.63;;;;;;;3.59;70.21;97758.53;4985046;28;20040;-79
2021/11/21 05:41:16;;;;;;;4.13;0.80;;;;;;;3.33;70.62;97704.91;5010184;28;20034;-82
2021/11/21 05:43:42;;;;;;;1.50;0.73;;;;;;;3.47;70.46;97723.56;4998034;28;20084;-82
2021/11/21 05:46:10;;;;;;;2.70;0.63;;;;;;;3.69;70.37;97760.13;5004547;28;20058;-83
2021/11/21 05:48:36;;;;;;;1.25;0.82;;;;;;;3.45;70.34;97721.00;4982719;28;20070;-82
2021/11/21 05:51:03;;;;;;;1.95;0.75;;;;;;;3.72;69.67;97756.66;4966355;28;20041;-83
2021/11/21 05:53:29;;;;;;;1.60;0.77;;;;;;;3.61;69.77;97739.66;5015077;28;20130;-82
2021/11/21 05:55:55;;;;;;;1.15;0.73;;;;;;;3.20;69.33;97663.91;5002670;28;20124;-81
2021/11/21 05:58:23;;;;;;;2.08;0.70;;;;;;;3.73;69.88;97750.66;4997869;28;20044;-82
2021/11/21 06:00:49;;;;;;;4.63;0.90;;;;;;;3.59;70.29;97718.25;5002377;28;20057;-82
2021/11/21 06:03:16;;;;;;;4.10;0.98;;;;;;;3.51;69.46;97719.25;5000485;28;20038;-82
2021/11/21 06:05:42;;;;;;;6.05;1.40;;;;;;;3.83;70.10;97759.94;5003344;28;20045;-84
2021/11/21 06:08:09;;;;;;;6.07;1.27;;;;;;;3.87;69.72;97768.47;4985187;28;20425;-84
2021/11/21 06:10:35;;;;;;;3.08;1.23;;;;;;;3.75;69.44;97725.75;5005264;28;20379;-81
2021/11/21 06:13:01;;;;;;;4.05;1.00;;;;;;;4.01;69.83;97761.38;4985629;28;20168;-82
2021/11/21 06:15:27;;;;;;;4.85;1.10;;;;;;;3.83;69.61;97730.78;4994256;28;20049;-83
2021/11/21 06:17:54;;;;;;;2.88;1.10;;;;;;;3.82;69.72;97713.63;5002816;28;20045;-82
2021/11/21 06:20:20;;;;;;;4.35;1.20;;;;;;;3.70;68.87;97697.53;5003130;28;20169;-82
2021/11/21 06:22:46;;;;;;;3.95;1.20;;;;;;;3.75;69.14;97676.88;5005900;28;20128;-78
2021/11/21 06:25:13;;;;;;;3.10;1.25;;;;;;;4.27;68.93;97756.72;5004490;28;20045;-82
2021/11/21 06:27:40;;;;;;;2.30;1.00;;;;;;;4.25;68.95;97763.63;4981355;28;20037;-82
2021/11/21 06:30:09;;;;;;;1.90;1.05;;;;;;;4.29;68.38;97760.97;4994528;28;20046;-81
2021/11/21 06:32:35;;;;;;;1.27;0.70;;;;;;;4.10;67.89;97759.56;5003080;28;20041;-78
2021/11/21 06:35:04;;;;;;;2.15;0.90;;;;;;;4.22;67.99;97778.22;4986572;28;20061;-84
2021/11/21 06:37:30;;;;;;;2.65;0.90;;;;;;;4.04;68.21;97748.47;4975157;28;20565;-82
2021/11/21 06:39:58;;;;;;;2.25;1.00;;;;;;;4.03;68.28;97745.94;4975058;28;20053;-83
2021/11/21 06:42:23;;;;;;;2.65;0.95;;;;;;;3.46;68.23;97639.56;4988699;28;20061;-83
2021/11/21 06:44:50;;;;;;;5.57;1.20;;;;;;;3.28;67.78;97602.97;4991482;28;20046;-79
2021/11/21 06:47:17;;;;;;;3.75;1.30;;;;;;;3.76;67.41;97678.56;4987262;28;20044;-79
2021/11/21 06:49:45;;;;;;;2.97;0.90;;;;;;;4.01;67.70;97729.66;5017820;28;20060;-82
2021/11/21 06:52:13;;;;;;;2.45;1.33;;;;;;;4.27;67.54;97761.88;5014537;28;20038;-83
2021/11/21 06:54:39;;;;;;;4.18;1.50;;;;;;;3.74;67.63;97664.88;4997474;28;20128;-81
2021/11/21 06:57:05;;;;;;;3.20;1.98;;;;;;;4.22;66.89;97733.59;5012351;28;20045;-83
2021/11/21 06:59:31;;;;;;;2.28;1.30;;;;;;;3.92;66.97;97681.75;4991766;28;20493;-81
2021/11/21 07:01:58;;;;;;;2.92;1.40;;;;;;;4.06;66.91;97694.41;5006744;28;20041;-79
2021/11/21 07:04:49;;;;;;;5.10;1.95;;;;;;;4.05;66.18;97695.28;5009142;28;20053;-79
2021/11/21 07:07:18;;;;;;;5.78;1.55;;;;;;;4.22;66.70;97739.63;5016787;28;20026;-82
2021/11/21 07:09:48;;;;;;;2.67;1.00;;;;;;;4.14;66.61;97715.72;5005055;28;20038;-81
2021/11/21 07:12:21;;;;;;;2.25;1.30;;;;;;;4.04;65.69;97686.69;5004538;28;20042;-80
2021/11/21 07:14:58;;;;;;;2.80;1.30;;;;;;;4.20;66.67;97733.63;5017752;28;20046;-80
2021/11/21 07:17:24;;;;;;;2.80;1.30;;;;;;;3.47;65.66;97623.25;4991414;28;20076;-81
2021/11/21 07:19:50;;;;;;;1.60;0.95;;;;;;;4.42;65.73;97794.22;5009278;28;20049;-80
2021/11/21 07:22:16;;;;;;;2.53;1.00;;;;;;;4.27;65.85;97797.91;5009756;28;20052;-81
2021/11/21 07:24:48;;;;;;;2.58;1.15;;;;;;;4.04;65.89;97792.22;5010331;28;20044;-81
2021/11/21 07:27:16;;;;;;;5.57;1.30;;;;;;;3.88;66.40;97771.00;4978053;28;20102;-80
2021/11/21 07:29:42;;;;;;;5.10;1.23;;;;;;;3.38;66.41;97700.56;4992522;28;20038;-82
2021/11/21 07:32:08;;;;;;;3.13;1.77;;;;;;;3.45;65.56;97712.44;5002126;28;20038;-80
2021/11/21 07:34:34;;;;;;;3.83;1.60;;;;;;;3.65;66.07;97752.47;5004379;28;20089;-80
2021/11/21 07:37:04;;;;;;;2.42;1.30;;;;;;;3.38;66.52;97721.94;4974257;28;20042;-82
2021/11/21 07:39:30;;;;;;;2.47;1.02;;;;;;;3.73;66.84;97768.66;5001391;28;20132;-81
2021/11/21 07:41:57;;;;;;;4.45;1.10;;;;;;;3.73;66.03;97766.94;4989981;28;20141;-80
2021/11/21 07:44:25;;;;;;;2.28;1.20;;;;;;;3.98;66.23;97812.06;4985498;28;20053;-80
2021/11/21 07:46:53;;;;;;;3.58;1.38;;;;;;;4.06;66.86;97810.25;5007132;28;20052;-84
2021/11/21 07:49:20;;;;;;;3.25;1.73;;;;;;;3.76;66.94;97743.72;5009365;28;20056;-80
2021/11/21 07:51:47;;;;;;;4.88;1.30;;;;;;;3.51;65.95;97688.38;4976186;28;20041;-79
2021/11/21 07:54:13;;;;;;;1.40;1.20;;;;;;;4.43;66.63;97806.22;5005902;28;20049;-80
2021/11/21 07:56:40;;;;;;;5.13;1.92;;;;;;;4.36;65.83;97777.16;5009888;28;20029;-82
2021/11/21 07:59:09;;;;;;;4.00;1.05;;;;;;;3.96;64.96;97752.91;5020200;28;20050;-81
2021/11/21 08:01:46;;;;;;;3.30;1.10;;;;;;;3.89;65.34;97753.84;4978897;28;20050;-82
2021/11/21 08:04:15;;;;;;;2.35;1.10;;;;;;;3.35;65.74;97659.44;4988637;28;20034;-80
2021/11/21 08:06:50;;;;;;;2.58;1.10;;;;;;;3.71;65.35;97709.50;5016504;28;20096;-82
2021/11/21 08:09:28;;;;;;;3.60;1.30;;;;;;;3.85;65.32;97722.19;4954836;28;20054;-80
2021/11/21 08:11:56;;;;;;;4.78;1.73;;;;;;;3.85;65.05;97742.75;4995543;28;20117;-82
2021/11/21 08:14:22;;;;;;;3.00;1.60;;;;;;;3.15;65.41;97622.03;4986300;28;20096;-82
2021/11/21 08:16:50;;;;;;;3.75;1.40;;;;;;;4.20;64.94;97795.44;5008902;28;20088;-83
2021/11/21 08:19:19;;;;;;;4.50;1.50;;;;;;;3.74;64.98;97735.19;4959859;28;20046;-82
2021/11/21 08:22:09;;;;;;;5.38;1.50;;;;;;;4.43;64.92;97830.28;4989573;28;20041;-83
2021/11/21 08:24:35;;;;;;;3.05;1.40;;;;;;;3.61;64.42;97671.94;4997091;28;20124;-82
2021/11/21 08:27:04;;;;;;;3.95;1.20;;;;;;;4.21;64.54;97745.63;5018453;28;20048;-81
2021/11/21 08:29:39;;;;;;;4.03;1.45;;;;;;;4.25;64.93;97761.03;5004034;28;20105;-81
2021/11/21 08:32:18;;;;;;;3.88;1.50;;;;;;;4.22;64.14;97719.03;4987762;28;20037;-79
2021/11/21 08:34:45;;;;;;;5.30;1.67;;;;;;;3.91;64.08;97644.03;4998632;28;20059;-83
2021/11/21 08:37:25;;;;;;;2.20;1.05;;;;;;;4.86;63.74;97799.53;5023073;28;20057;-84
2021/11/21 08:39:54;;;;;;;3.17;1.38;;;;;;;4.64;64.06;97769.81;5017145;28;20053;-83
2021/11/21 08:42:23;;;;;;;4.45;1.20;;;;;;;5.02;62.44;97839.59;5003774;28;20048;-84
2021/11/21 08:45:18;;;;;;;3.10;1.08;;;;;;;4.61;62.59;97781.91;4999201;28;20042;-82
2021/11/21 08:47:52;;;;;;;2.47;0.85;;;;;;;3.84;62.85;97640.72;5009390;28;20041;-83
2021/11/21 08:50:38;;;;;;;2.65;1.83;;;;;;;4.98;62.40;97838.81;5025102;28;20046;-83
2021/11/21 08:53:23;;;;;;;2.70;1.50;;;;;;;3.98;61.76;97670.50;4967522;28;20057;-79
2021/11/21 08:55:54;;;;;;;2.25;1.10;;;;;;;4.06;62.49;97697.81;5017491;28;20108;-80
2021/11/21 08:58:27;;;;;;;2.15;1.05;;;;;;;4.17;62.75;97707.94;5016228;28;20033;-79
2021/11/21 09:00:55;;;;;;;1.75;1.10;;;;;;;4.42;62.58;97745.28;5007374;28;20064;-80
2021/11/21 09:03:21;;;;;;;2.03;1.10;;;;;;;4.33;62.02;97703.38;4952708;28;20037;-83
2021/11/21 09:05:50;;;;;;;2.35;1.60;;;;;;;4.26;61.18;97685.50;5025289;28;20057;-81
2021/11/21 09:08:38;;;;;;;2.35;1.10;;;;;;;4.24;61.21;97689.81;5019910;28;20054;-82
2021/11/21 09:11:08;;;;;;;2.00;1.17;;;;;;;4.68;60.80;97761.16;4995480;28;20098;-83
2021/11/21 09:13:34;;;;;;;5.70;2.80;;;;;;;5.15;60.26;97842.81;4996725;28;20065;-85
2021/11/21 09:16:01;;;;;;;3.78;1.08;;;;;;;5.05;60.47;97844.72;4990495;28;20060;-81
2021/11/21 09:18:27;;;;;;;1.38;0.82;;;;;;;4.59;60.95;97784.53;5003624;28;20437;-78
2021/11/21 09:20:59;;;;;;;2.00;0.98;;;;;;;4.31;60.66;97732.59;5004709;28;20072;-84
2021/11/21 09:23:26;;;;;;;2.25;1.17;;;;;;;4.63;60.34;97788.75;4993793;28;21475;-80
2021/11/21 09:25:55;;;;;;;1.58;1.10;;;;;;;4.66;60.11;97785.25;4980919;28;20081;-82
2021/11/21 09:28:25;;;;;;;4.30;1.23;;;;;;;4.48;59.71;97758.94;4995593;28;20033;-81
2021/11/21 09:30:56;;;;;;;3.30;1.10;;;;;;;5.09;59.68;97845.50;4976991;28;20111;-83
2021/11/21 09:33:29;;;;;;;1.85;1.00;;;;;;;4.38;59.40;97705.88;5005714;28;20520;-79
2021/11/21 09:35:56;;;;;;;;;;;;;;;5.39;59.68;97833.78;5007401;28;20048;-80
2021/11/21 09:38:24;;;;;;;1.83;1.00;;;;;;;5.38;59.25;97823.47;5002568;28;20330;-82
2021/11/21 09:41:00;;;;;;;2.40;0.87;;;;;;;5.32;58.85;97775.44;5002492;28;20073;-80
2021/11/21 09:43:32;;;;;;;3.30;1.02;;;;;;;5.67;58.17;97817.72;4991626;28;20312;-82
2021/11/21 09:45:59;;;;;;;2.80;1.35;;;;;;;5.55;58.10;97787.03;4991827;28;20092;-80
2021/11/21 09:48:54;;;;;;;1.95;0.90;;;;;;;5.58;58.07;97779.22;5001467;28;20053;-80
2021/11/21 09:51:21;;;;;;;2.15;1.13;;;;;;;5.94;57.03;97840.44;5003647;28;20050;-79
2021/11/21 09:53:48;;;;;;;1.80;1.15;;;;;;;5.94;56.79;97838.69;4991039;28;20073;-78
2021/11/21 09:56:17;;;;;;;3.10;1.20;;;;;;;5.86;56.93;97831.09;5003727;28;20046;-81
2021/11/21 09:58:45;;;;;;;5.00;1.33;;;;;;;5.85;56.23;97854.34;4998229;28;20033;-80
2021/11/21 10:01:33;;;;;;;2.20;1.10;;;;;;;5.66;56.60;97854.75;4985808;28;20045;-81
2021/11/21 10:04:34;;;;;;;3.70;0.88;;;;;;;5.52;56.70;97843.84;5000033;28;20509;-79
2021/11/21 10:07:28;;;;;;;1.27;0.90;;;;;;;5.45;56.87;97847.41;4970975;28;20054;-79
2021/11/21 10:09:58;;;;;;;3.35;1.05;;;;;;;4.53;56.79;97679.00;5002387;28;20485;-82
2021/11/21 10:12:53;;;;;;;;;;;;;;;;;;;;;
2021/11/21 10:19:05;;;;;;;5.03;1.30;;;;;;;4.56;55.99;97712.44;4950897;28;20159;-80
2021/11/21 10:21:53;;;;;;;2.28;0.90;;;;;;;5.50;56.30;97882.59;5001962;28;20041;-79
2021/11/21 10:24:28;;;;;;;3.08;1.10;;;;;;;5.54;56.44;97873.06;5001830;28;20070;-81
2021/11/21 10:27:07;;;;;;;3.25;1.10;;;;;;;5.06;56.18;97802.59;4973821;28;20053;-80
2021/11/21 10:29:54;;;;;;;1.95;1.00;;;;;;;5.35;55.40;97873.41;5002491;28;20093;-81
2021/11/21 10:32:32;;;;;;;4.32;1.55;;;;;;;5.26;56.13;97878.72;4984306;28;20422;-83
2021/11/21 10:35:22;;;;;;;2.03;1.25;;;;;;;4.48;56.33;97755.50;5001936;28;20049;-80
2021/11/21 10:37:57;;;;;;;3.50;1.73;;;;;;;5.09;56.22;97843.78;4986620;28;20037;-79
2021/11/21 10:40:23;;;;;;;3.70;1.90;;;;;;;5.21;55.37;97870.22;5000470;28;20136;-79
2021/11/21 10:42:56;;;;;;;2.63;1.20;;;;;;;5.12;55.38;97866.94;5001677;28;20649;-82
2021/11/21 10:45:44;;;;;;;2.97;1.65;;;;;;;5.01;55.92;97855.94;4983387;28;20063;-79
2021/11/21 10:48:30;;;;;;;3.72;1.40;;;;;;;5.16;55.21;97883.19;4965520;28;20046;-81
2021/11/21 10:50:57;;;;;;;1.73;1.15;;;;;;;5.12;55.81;97873.81;4989896;28;20085;-80
2021/11/21 10:53:32;;;;;;;2.28;1.13;;;;;;;5.09;55.42;97877.31;4983614;28;20175;-79
2021/11/21 10:56:10;;;;;;;1.63;1.27;;;;;;;4.94;55.55;97860.38;4968901;28;20049;-81
2021/11/21 10:58:52;;;;;;;4.32;1.08;;;;;;;5.16;55.74;97888.34;5003884;28;20122;-81
2021/11/21 11:01:26;;;;;;;3.72;1.38;;;;;;;5.17;55.35;97886.63;5008010;28;20072;-80
2021/11/21 11:04:17;;;;;;;5.72;2.38;;;;;;;5.10;55.17;97860.97;5011333;28;20133;-77
2021/11/21 11:06:43;;;;;;;5.07;2.55;;;;;;;5.01;55.10;97857.69;4997672;28;20076;-82
2021/11/21 11:09:25;;;;;;;4.35;1.58;;;;;;;5.01;55.06;97870.56;5008224;28;20069;-78
2021/11/21 11:11:53;;;;;;;3.25;1.27;;;;;;;5.12;55.20;97882.41;4995013;28;20085;-84
2021/11/21 11:14:20;;;;;;;1.65;1.10;;;;;;;5.11;54.84;97870.41;5002174;28;20077;-81
2021/11/21 11:16:55;;;;;;;3.47;1.42;;;;;;;4.94;55.05;97838.91;5013338;28;20057;-82
2021/11/21 11:19:24;;;;;;;2.17;1.15;;;;;;;5.17;55.22;97873.75;4993130;28;20505;-78
2021/11/21 11:22:13;;;;;;;2.30;1.30;;;;;;;4.62;54.76;97793.91;4993400;28;20060;-83
2021/11/21 11:24:42;;;;;;;2.08;1.50;;;;;;;4.88;55.07;97833.84;5010605;28;20045;-82
2021/11/21 11:27:20;;;;;;;1.80;1.40;;;;;;;5.23;54.90;97871.03;5024253;28;20041;-85
2021/11/21 11:30:08;;;;;;;2.38;1.70;;;;;;;5.02;55.16;97818.97;4988538;28;20069;-78
2021/11/21 11:32:48;;;;;;;6.07;2.35;;;;;;;5.31;54.85;97840.81;5003888;28;20029;-81
2021/11/21 11:35:56;;;;;;;3.10;1.38;;;;;;;5.00;54.69;97770.91;5007967;28;20049;-83
2021/11/21 11:39:17;;;;;;;2.58;1.33;;;;;;;5.54;54.68;97842.09;4927913;28;20047;-81
2021/11/21 11:41:59;;;;;;;4.70;1.88;;;;;;;5.36;54.26;97809.75;4977769;28;20056;-81
2021/11/21 11:45:07;;;;;;;3.40;1.70;;;;;;;5.62;53.81;97865.16;4974979;28;20085;-82
2021/11/21 11:47:37;;;;;;;4.68;1.70;;;;;;;5.32;54.30;97810.69;4975843;28;20064;-82
2021/11/21 11:50:28;;;;;;;4.15;1.45;;;;;;;5.45;53.73;97837.09;4984838;28;20113;-80
2021/11/21 11:53:08;;;;;;;4.55;1.55;;;;;;;4.61;53.73;97678.84;5004531;28;20049;-82
2021/11/21 11:56:21;;;;;;;3.75;1.70;;;;;;;5.73;53.66;97874.38;5015393;28;20041;-84
2021/11/21 11:59:06;;;;;;;3.60;1.30;;;;;;;5.35;53.66;97784.84;5000486;28;20046;-82
2021/11/21 12:01:35;;;;;;;7.30;2.42;;;;;;;5.72;54.11;97867.53;4997350;28;20042;-80